sensor_id;sensor_type;location;lat;lon;timestamp;temperature;humidity
39019;DHT22;24786;51.984;5.872;2022-09-23T00:02:02;11.60;99.90
39019;DHT22;24786;51.984;5.872;2022-09-23T00:04:29;11.60;99.90
39019;DHT22;24786;51.984;5.872;2022-09-23T00:06:55;11.60;99.90
39019;DHT22;24786;51.984;5.872;2022-09-23T00:09:20;11.60;99.90
39019;DHT22;24786;51.984;5.872;2022-09-23T00:11:46;11.60;99.90
39019;DHT22;24786;51.984;5.872;2022-09-23T00:14:11;11.60;99.90
39019;DHT22;24786;51.984;5.872;2022-09-23T00:16:37;11.60;99.90
39019;DHT22;24786;51.984;5.872;2022-09-23T00:19:03;11.60;99.90
39019;DHT22;24786;51.984;5.872;2022-09-23T00:21:41;11.50;99.90
39019;DHT22;24786;51.984;5.872;2022-09-23T00:24:07;11.50;99.90
39019;DHT22;24786;51.984;5.872;2022-09-23T00:26:33;11.50;99.90
39019;DHT22;24786;51.984;5.872;2022-09-23T00:29:17;11.50;99.90
39019;DHT22;24786;51.984;5.872;2022-09-23T00:31:43;11.40;99.90
39019;DHT22;24786;51.984;5.872;2022-09-23T00:34:09;11.40;99.90
39019;DHT22;24786;51.984;5.872;2022-09-23T00:36:53;11.40;99.90
39019;DHT22;24786;51.984;5.872;2022-09-23T00:41:56;11.40;99.90
39019;DHT22;24786;51.984;5.872;2022-09-23T00:44:44;11.40;99.90
39019;DHT22;24786;51.984;5.872;2022-09-23T00:47:34;11.40;99.90
39019;DHT22;24786;51.984;5.872;2022-09-23T00:50:29;11.40;99.90
39019;DHT22;24786;51.984;5.872;2022-09-23T00:53:13;11.40;99.90
39019;DHT22;24786;51.984;5.872;2022-09-23T00:56:01;11.40;99.90
39019;DHT22;24786;51.984;5.872;2022-09-23T00:58:30;11.30;99.90
39019;DHT22;24786;51.984;5.872;2022-09-23T01:01:14;11.50;99.90
39019;DHT22;24786;51.984;5.872;2022-09-23T01:03:42;11.30;99.90
39019;DHT22;24786;51.984;5.872;2022-09-23T01:06:24;11.30;99.90
39019;DHT22;24786;51.984;5.872;2022-09-23T01:08:51;11.30;99.90
39019;DHT22;24786;51.984;5.872;2022-09-23T01:11:35;11.20;99.90
39019;DHT22;24786;51.984;5.872;2022-09-23T01:14:27;11.30;99.90
39019;DHT22;24786;51.984;5.872;2022-09-23T01:17:08;11.30;99.90
39019;DHT22;24786;51.984;5.872;2022-09-23T01:30:46;11.20;99.90
39019;DHT22;24786;51.984;5.872;2022-09-23T01:42:04;11.10;99.90
39019;DHT22;24786;51.984;5.872;2022-09-23T01:47:19;11.10;99.90
39019;DHT22;24786;51.984;5.872;2022-09-23T01:49:50;11.00;99.90
39019;DHT22;24786;51.984;5.872;2022-09-23T01:54:54;11.00;99.90
39019;DHT22;24786;51.984;5.872;2022-09-23T01:57:38;10.90;99.90
39019;DHT22;24786;51.984;5.872;2022-09-23T02:00:09;10.80;99.90
39019;DHT22;24786;51.984;5.872;2022-09-23T02:02:41;10.70;99.90
39019;DHT22;24786;51.984;5.872;2022-09-23T02:05:27;10.70;99.90
39019;DHT22;24786;51.984;5.872;2022-09-23T02:08:28;10.70;99.90
39019;DHT22;24786;51.984;5.872;2022-09-23T02:11:04;10.60;99.90
39019;DHT22;24786;51.984;5.872;2022-09-23T02:14:01;10.60;99.90
39019;DHT22;24786;51.984;5.872;2022-09-23T02:16:49;10.60;99.90
39019;DHT22;24786;51.984;5.872;2022-09-23T02:19:27;10.50;99.90
39019;DHT22;24786;51.984;5.872;2022-09-23T02:22:19;10.50;99.90
39019;DHT22;24786;51.984;5.872;2022-09-23T02:24:45;10.50;99.90
39019;DHT22;24786;51.984;5.872;2022-09-23T02:27:31;10.50;99.90
39019;DHT22;24786;51.984;5.872;2022-09-23T02:38:10;10.40;99.90
39019;DHT22;24786;51.984;5.872;2022-09-23T02:43:46;10.40;99.90
39019;DHT22;24786;51.984;5.872;2022-09-23T02:46:15;10.50;99.90
39019;DHT22;24786;51.984;5.872;2022-09-23T02:48:51;10.40;99.90
39019;DHT22;24786;51.984;5.872;2022-09-23T02:51:17;10.40;99.90
39019;DHT22;24786;51.984;5.872;2022-09-23T02:53:44;10.40;99.90
39019;DHT22;24786;51.984;5.872;2022-09-23T02:56:21;10.50;99.90
39019;DHT22;24786;51.984;5.872;2022-09-23T02:58:49;10.50;99.90
39019;DHT22;24786;51.984;5.872;2022-09-23T03:07:02;10.40;99.90
39019;DHT22;24786;51.984;5.872;2022-09-23T03:09:59;10.40;99.90
39019;DHT22;24786;51.984;5.872;2022-09-23T03:12:37;10.40;99.90
39019;DHT22;24786;51.984;5.872;2022-09-23T03:15:36;10.40;99.90
39019;DHT22;24786;51.984;5.872;2022-09-23T03:18:22;10.40;99.90
39019;DHT22;24786;51.984;5.872;2022-09-23T03:21:24;10.30;99.90
39019;DHT22;24786;51.984;5.872;2022-09-23T03:23:52;10.40;99.90
39019;DHT22;24786;51.984;5.872;2022-09-23T03:26:22;10.40;99.90
39019;DHT22;24786;51.984;5.872;2022-09-23T03:28:49;10.40;99.90
39019;DHT22;24786;51.984;5.872;2022-09-23T03:31:16;10.40;99.90
39019;DHT22;24786;51.984;5.872;2022-09-23T03:33:53;10.40;99.90
39019;DHT22;24786;51.984;5.872;2022-09-23T03:36:28;10.40;99.90
39019;DHT22;24786;51.984;5.872;2022-09-23T03:41:49;10.30;99.90
39019;DHT22;24786;51.984;5.872;2022-09-23T03:44:18;10.20;99.90
39019;DHT22;24786;51.984;5.872;2022-09-23T03:46:44;10.20;99.90
39019;DHT22;24786;51.984;5.872;2022-09-23T03:49:22;10.10;99.90
39019;DHT22;24786;51.984;5.872;2022-09-23T03:51:49;10.20;99.90
39019;DHT22;24786;51.984;5.872;2022-09-23T03:54:14;10.20;99.90
39019;DHT22;24786;51.984;5.872;2022-09-23T03:56:40;10.10;99.90
39019;DHT22;24786;51.984;5.872;2022-09-23T03:59:06;10.10;99.90
39019;DHT22;24786;51.984;5.872;2022-09-23T04:01:32;10.10;99.90
39019;DHT22;24786;51.984;5.872;2022-09-23T04:03:57;10.10;99.90
39019;DHT22;24786;51.984;5.872;2022-09-23T04:06:24;10.10;99.90
39019;DHT22;24786;51.984;5.872;2022-09-23T04:08:50;10.10;99.90
39019;DHT22;24786;51.984;5.872;2022-09-23T04:11:15;10.10;99.90
39019;DHT22;24786;51.984;5.872;2022-09-23T04:13:41;10.10;99.90
39019;DHT22;24786;51.984;5.872;2022-09-23T04:16:06;10.10;99.90
39019;DHT22;24786;51.984;5.872;2022-09-23T04:18:32;10.00;99.90
39019;DHT22;24786;51.984;5.872;2022-09-23T04:20:58;10.00;99.90
39019;DHT22;24786;51.984;5.872;2022-09-23T04:23:25;10.00;99.90
39019;DHT22;24786;51.984;5.872;2022-09-23T04:25:51;10.00;99.90
39019;DHT22;24786;51.984;5.872;2022-09-23T04:28:17;10.00;99.90
39019;DHT22;24786;51.984;5.872;2022-09-23T04:30:43;10.00;99.90
39019;DHT22;24786;51.984;5.872;2022-09-23T04:33:11;10.10;99.90
39019;DHT22;24786;51.984;5.872;2022-09-23T04:35:37;10.10;99.90
39019;DHT22;24786;51.984;5.872;2022-09-23T04:38:11;10.00;99.90
39019;DHT22;24786;51.984;5.872;2022-09-23T04:40:37;10.10;99.90
39019;DHT22;24786;51.984;5.872;2022-09-23T04:43:03;10.10;99.90
39019;DHT22;24786;51.984;5.872;2022-09-23T04:45:28;10.10;99.90
39019;DHT22;24786;51.984;5.872;2022-09-23T04:47:54;10.10;99.90
39019;DHT22;24786;51.984;5.872;2022-09-23T04:50:23;10.10;99.90
39019;DHT22;24786;51.984;5.872;2022-09-23T04:52:50;10.20;99.90
39019;DHT22;24786;51.984;5.872;2022-09-23T04:55:16;10.10;99.90
39019;DHT22;24786;51.984;5.872;2022-09-23T04:57:42;10.10;99.90
39019;DHT22;24786;51.984;5.872;2022-09-23T05:00:10;10.10;99.90
39019;DHT22;24786;51.984;5.872;2022-09-23T05:02:44;10.10;99.90
39019;DHT22;24786;51.984;5.872;2022-09-23T05:05:11;10.10;99.90
39019;DHT22;24786;51.984;5.872;2022-09-23T05:07:37;10.10;99.90
39019;DHT22;24786;51.984;5.872;2022-09-23T05:10:03;10.10;99.90
39019;DHT22;24786;51.984;5.872;2022-09-23T05:12:29;10.10;99.90
39019;DHT22;24786;51.984;5.872;2022-09-23T05:14:54;10.10;99.90
39019;DHT22;24786;51.984;5.872;2022-09-23T05:17:21;10.10;99.90
39019;DHT22;24786;51.984;5.872;2022-09-23T05:19:46;10.20;99.90
39019;DHT22;24786;51.984;5.872;2022-09-23T05:22:12;10.20;99.90
39019;DHT22;24786;51.984;5.872;2022-09-23T05:24:37;10.20;99.90
39019;DHT22;24786;51.984;5.872;2022-09-23T05:27:03;10.20;99.90
39019;DHT22;24786;51.984;5.872;2022-09-23T05:29:31;10.20;99.90
39019;DHT22;24786;51.984;5.872;2022-09-23T05:31:57;10.20;99.90
39019;DHT22;24786;51.984;5.872;2022-09-23T05:34:30;10.20;99.90
39019;DHT22;24786;51.984;5.872;2022-09-23T05:36:56;10.20;99.90
39019;DHT22;24786;51.984;5.872;2022-09-23T05:39:22;10.20;99.90
39019;DHT22;24786;51.984;5.872;2022-09-23T05:42:06;10.20;99.90
39019;DHT22;24786;51.984;5.872;2022-09-23T05:44:34;10.20;99.90
39019;DHT22;24786;51.984;5.872;2022-09-23T05:46:59;10.20;99.90
39019;DHT22;24786;51.984;5.872;2022-09-23T05:49:26;10.20;99.90
39019;DHT22;24786;51.984;5.872;2022-09-23T05:52:01;10.20;99.90
39019;DHT22;24786;51.984;5.872;2022-09-23T05:54:30;10.20;99.90
39019;DHT22;24786;51.984;5.872;2022-09-23T05:56:56;10.30;99.90
39019;DHT22;24786;51.984;5.872;2022-09-23T05:59:21;10.30;99.90
39019;DHT22;24786;51.984;5.872;2022-09-23T06:01:50;10.30;99.90
39019;DHT22;24786;51.984;5.872;2022-09-23T06:04:34;10.30;99.90
39019;DHT22;24786;51.984;5.872;2022-09-23T06:07:14;10.40;99.90
39019;DHT22;24786;51.984;5.872;2022-09-23T06:09:40;10.40;99.90
39019;DHT22;24786;51.984;5.872;2022-09-23T06:12:22;10.40;99.90
39019;DHT22;24786;51.984;5.872;2022-09-23T06:14:50;10.50;99.90
39019;DHT22;24786;51.984;5.872;2022-09-23T06:17:24;10.50;99.90
39019;DHT22;24786;51.984;5.872;2022-09-23T06:19:49;10.50;99.90
39019;DHT22;24786;51.984;5.872;2022-09-23T06:22:23;10.50;99.90
39019;DHT22;24786;51.984;5.872;2022-09-23T06:24:49;10.60;99.90
39019;DHT22;24786;51.984;5.872;2022-09-23T06:27:24;10.60;99.90
39019;DHT22;24786;51.984;5.872;2022-09-23T06:29:49;10.60;99.90
39019;DHT22;24786;51.984;5.872;2022-09-23T06:32:17;10.60;99.90
39019;DHT22;24786;51.984;5.872;2022-09-23T06:34:43;10.70;99.90
39019;DHT22;24786;51.984;5.872;2022-09-23T06:37:10;10.70;99.90
39019;DHT22;24786;51.984;5.872;2022-09-23T06:39:36;10.60;99.90
39019;DHT22;24786;51.984;5.872;2022-09-23T06:42:01;10.80;99.90
39019;DHT22;24786;51.984;5.872;2022-09-23T06:44:27;10.80;99.90
39019;DHT22;24786;51.984;5.872;2022-09-23T06:46:53;10.90;99.90
39019;DHT22;24786;51.984;5.872;2022-09-23T06:49:18;10.90;99.90
39019;DHT22;24786;51.984;5.872;2022-09-23T06:51:47;10.90;99.90
39019;DHT22;24786;51.984;5.872;2022-09-23T06:54:12;11.00;99.90
39019;DHT22;24786;51.984;5.872;2022-09-23T06:56:38;11.00;99.90
39019;DHT22;24786;51.984;5.872;2022-09-23T06:59:05;11.00;99.90
39019;DHT22;24786;51.984;5.872;2022-09-23T07:01:30;11.00;99.90
39019;DHT22;24786;51.984;5.872;2022-09-23T07:03:56;11.10;99.90
39019;DHT22;24786;51.984;5.872;2022-09-23T07:06:21;11.10;99.90
39019;DHT22;24786;51.984;5.872;2022-09-23T07:08:47;11.10;99.90
39019;DHT22;24786;51.984;5.872;2022-09-23T07:11:14;11.10;99.90
39019;DHT22;24786;51.984;5.872;2022-09-23T07:13:40;11.20;99.90
39019;DHT22;24786;51.984;5.872;2022-09-23T07:16:07;11.10;99.90
39019;DHT22;24786;51.984;5.872;2022-09-23T07:18:33;11.20;99.90
39019;DHT22;24786;51.984;5.872;2022-09-23T07:21:11;11.20;99.90
39019;DHT22;24786;51.984;5.872;2022-09-23T07:23:42;11.30;99.90
39019;DHT22;24786;51.984;5.872;2022-09-23T07:26:09;11.30;99.90
39019;DHT22;24786;51.984;5.872;2022-09-23T07:28:34;11.30;99.90
39019;DHT22;24786;51.984;5.872;2022-09-23T07:31:03;11.30;99.90
39019;DHT22;24786;51.984;5.872;2022-09-23T07:33:29;11.30;99.90
39019;DHT22;24786;51.984;5.872;2022-09-23T07:35:56;11.30;99.90
39019;DHT22;24786;51.984;5.872;2022-09-23T07:38:21;11.30;99.90
39019;DHT22;24786;51.984;5.872;2022-09-23T07:41:00;11.30;99.90
39019;DHT22;24786;51.984;5.872;2022-09-23T07:43:27;11.40;99.90
39019;DHT22;24786;51.984;5.872;2022-09-23T07:45:56;11.40;99.90
39019;DHT22;24786;51.984;5.872;2022-09-23T07:48:21;11.40;99.90
39019;DHT22;24786;51.984;5.872;2022-09-23T07:50:47;11.50;99.90
39019;DHT22;24786;51.984;5.872;2022-09-23T07:53:12;11.60;99.90
39019;DHT22;24786;51.984;5.872;2022-09-23T07:55:39;11.60;99.90
39019;DHT22;24786;51.984;5.872;2022-09-23T07:58:05;11.50;99.90
39019;DHT22;24786;51.984;5.872;2022-09-23T08:00:30;11.70;99.90
39019;DHT22;24786;51.984;5.872;2022-09-23T08:03:02;11.80;99.90
39019;DHT22;24786;51.984;5.872;2022-09-23T08:05:28;11.90;99.90
39019;DHT22;24786;51.984;5.872;2022-09-23T08:07:53;12.00;99.90
39019;DHT22;24786;51.984;5.872;2022-09-23T08:10:19;12.10;99.90
39019;DHT22;24786;51.984;5.872;2022-09-23T08:12:46;12.10;99.90
39019;DHT22;24786;51.984;5.872;2022-09-23T08:15:12;12.20;99.90
39019;DHT22;24786;51.984;5.872;2022-09-23T08:17:38;12.30;99.90
39019;DHT22;24786;51.984;5.872;2022-09-23T08:20:05;12.40;99.90
39019;DHT22;24786;51.984;5.872;2022-09-23T08:22:31;12.40;99.90
39019;DHT22;24786;51.984;5.872;2022-09-23T08:24:57;12.60;99.90
39019;DHT22;24786;51.984;5.872;2022-09-23T08:27:22;12.60;99.90
39019;DHT22;24786;51.984;5.872;2022-09-23T08:29:48;12.60;99.90
39019;DHT22;24786;51.984;5.872;2022-09-23T08:32:14;12.70;99.90
39019;DHT22;24786;51.984;5.872;2022-09-23T08:34:39;12.80;99.90
39019;DHT22;24786;51.984;5.872;2022-09-23T08:37:09;12.80;99.90
39019;DHT22;24786;51.984;5.872;2022-09-23T08:39:35;12.90;99.90
39019;DHT22;24786;51.984;5.872;2022-09-23T08:42:28;12.90;99.90
39019;DHT22;24786;51.984;5.872;2022-09-23T08:44:59;13.00;99.90
39019;DHT22;24786;51.984;5.872;2022-09-23T08:50:21;13.00;99.90
39019;DHT22;24786;51.984;5.872;2022-09-23T08:55:33;13.20;99.90
39019;DHT22;24786;51.984;5.872;2022-09-23T09:04:16;13.40;99.90
39019;DHT22;24786;51.984;5.872;2022-09-23T09:09:36;13.50;99.90
39019;DHT22;24786;51.984;5.872;2022-09-23T09:12:43;13.60;99.90
39019;DHT22;24786;51.984;5.872;2022-09-23T09:18:06;13.80;99.90
39019;DHT22;24786;51.984;5.872;2022-09-23T09:20:45;13.90;99.90
39019;DHT22;24786;51.984;5.872;2022-09-23T09:23:24;14.00;99.90
39019;DHT22;24786;51.984;5.872;2022-09-23T09:25:59;14.20;99.90
39019;DHT22;24786;51.984;5.872;2022-09-23T09:28:49;14.20;99.90
39019;DHT22;24786;51.984;5.872;2022-09-23T09:31:31;14.40;99.90
39019;DHT22;24786;51.984;5.872;2022-09-23T09:34:29;14.40;99.90
39019;DHT22;24786;51.984;5.872;2022-09-23T09:37:26;14.50;99.90
39019;DHT22;24786;51.984;5.872;2022-09-23T09:39:53;14.60;99.90
39019;DHT22;24786;51.984;5.872;2022-09-23T09:42:25;14.60;99.90
39019;DHT22;24786;51.984;5.872;2022-09-23T09:45:00;14.60;99.90
39019;DHT22;24786;51.984;5.872;2022-09-23T09:50:46;14.80;99.90
39019;DHT22;24786;51.984;5.872;2022-09-23T09:53:23;14.80;99.90
39019;DHT22;24786;51.984;5.872;2022-09-23T09:56:13;14.90;99.90
39019;DHT22;24786;51.984;5.872;2022-09-23T09:58:55;14.90;99.90
39019;DHT22;24786;51.984;5.872;2022-09-23T10:01:30;15.00;99.90
39019;DHT22;24786;51.984;5.872;2022-09-23T10:03:59;15.00;99.90
39019;DHT22;24786;51.984;5.872;2022-09-23T10:06:33;15.20;99.90
39019;DHT22;24786;51.984;5.872;2022-09-23T10:09:12;15.20;99.90
39019;DHT22;24786;51.984;5.872;2022-09-23T10:11:40;15.20;99.90
39019;DHT22;24786;51.984;5.872;2022-09-23T10:14:15;15.40;99.90
39019;DHT22;24786;51.984;5.872;2022-09-23T10:16:45;15.50;99.90
39019;DHT22;24786;51.984;5.872;2022-09-23T10:19:26;15.50;99.90
39019;DHT22;24786;51.984;5.872;2022-09-23T10:21:54;15.50;99.90
39019;DHT22;24786;51.984;5.872;2022-09-23T10:24:26;15.60;99.90
39019;DHT22;24786;51.984;5.872;2022-09-23T10:27:01;15.60;99.90
39019;DHT22;24786;51.984;5.872;2022-09-23T10:29:36;15.70;99.90
39019;DHT22;24786;51.984;5.872;2022-09-23T10:34:46;15.80;99.90
39019;DHT22;24786;51.984;5.872;2022-09-23T10:37:21;15.80;99.90
39019;DHT22;24786;51.984;5.872;2022-09-23T10:39:49;15.90;99.90
39019;DHT22;24786;51.984;5.872;2022-09-23T10:45:39;16.10;99.90
39019;DHT22;24786;51.984;5.872;2022-09-23T10:54:23;16.40;99.90
39019;DHT22;24786;51.984;5.872;2022-09-23T10:56:57;16.50;99.60
39019;DHT22;24786;51.984;5.872;2022-09-23T11:04:43;16.60;99.30
39019;DHT22;24786;51.984;5.872;2022-09-23T11:07:32;16.60;99.20
39019;DHT22;24786;51.984;5.872;2022-09-23T11:13:12;16.50;99.30
39019;DHT22;24786;51.984;5.872;2022-09-23T11:18:36;16.50;99.20
39019;DHT22;24786;51.984;5.872;2022-09-23T11:26:54;16.50;99.00
39019;DHT22;24786;51.984;5.872;2022-09-23T11:29:41;16.50;99.00
39019;DHT22;24786;51.984;5.872;2022-09-23T11:35:26;16.50;98.90
39019;DHT22;24786;51.984;5.872;2022-09-23T11:38:03;16.60;98.90
39019;DHT22;24786;51.984;5.872;2022-09-23T11:40:31;16.60;98.90
39019;DHT22;24786;51.984;5.872;2022-09-23T11:42:59;16.60;98.80
39019;DHT22;24786;51.984;5.872;2022-09-23T11:45:56;16.60;98.80
39019;DHT22;24786;51.984;5.872;2022-09-23T11:48:34;16.60;98.80
39019;DHT22;24786;51.984;5.872;2022-09-23T11:51:05;16.60;98.80
39019;DHT22;24786;51.984;5.872;2022-09-23T11:56:10;16.60;98.90
39019;DHT22;24786;51.984;5.872;2022-09-23T11:58:48;16.70;98.60
39019;DHT22;24786;51.984;5.872;2022-09-23T12:01:30;16.70;98.50
39019;DHT22;24786;51.984;5.872;2022-09-23T12:04:19;16.70;98.50
39019;DHT22;24786;51.984;5.872;2022-09-23T12:07:03;16.80;98.50
39019;DHT22;24786;51.984;5.872;2022-09-23T12:09:37;16.80;98.40
39019;DHT22;24786;51.984;5.872;2022-09-23T12:23:46;17.10;98.00
39019;DHT22;24786;51.984;5.872;2022-09-23T12:26:18;17.10;98.10
39019;DHT22;24786;51.984;5.872;2022-09-23T12:28:47;17.20;98.00
39019;DHT22;24786;51.984;5.872;2022-09-23T12:31:21;17.30;97.90
39019;DHT22;24786;51.984;5.872;2022-09-23T12:33:56;17.40;97.90
39019;DHT22;24786;51.984;5.872;2022-09-23T12:36:33;17.40;97.80
39019;DHT22;24786;51.984;5.872;2022-09-23T12:39:28;17.60;97.70
39019;DHT22;24786;51.984;5.872;2022-09-23T12:42:03;17.70;97.50
39019;DHT22;24786;51.984;5.872;2022-09-23T12:44:36;17.80;97.40
39019;DHT22;24786;51.984;5.872;2022-09-23T12:49:45;17.90;97.20
39019;DHT22;24786;51.984;5.872;2022-09-23T12:54:41;17.90;97.20
39019;DHT22;24786;51.984;5.872;2022-09-23T13:02:35;17.90;97.30
39019;DHT22;24786;51.984;5.872;2022-09-23T13:05:20;17.90;97.20
39019;DHT22;24786;51.984;5.872;2022-09-23T13:08:10;18.00;97.20
39019;DHT22;24786;51.984;5.872;2022-09-23T13:10:55;18.00;97.20
39019;DHT22;24786;51.984;5.872;2022-09-23T13:13:25;18.00;97.20
39019;DHT22;24786;51.984;5.872;2022-09-23T13:16:12;17.90;97.10
39019;DHT22;24786;51.984;5.872;2022-09-23T13:18:51;18.00;97.10
39019;DHT22;24786;51.984;5.872;2022-09-23T13:26:42;17.90;97.00
39019;DHT22;24786;51.984;5.872;2022-09-23T13:29:25;18.00;97.00
39019;DHT22;24786;51.984;5.872;2022-09-23T13:31:53;18.00;96.90
39019;DHT22;24786;51.984;5.872;2022-09-23T13:34:23;18.00;96.90
39019;DHT22;24786;51.984;5.872;2022-09-23T13:36:49;18.00;97.30
39019;DHT22;24786;51.984;5.872;2022-09-23T13:39:19;18.00;97.10
39019;DHT22;24786;51.984;5.872;2022-09-23T13:41:46;18.00;97.00
39019;DHT22;24786;51.984;5.872;2022-09-23T13:44:15;18.00;97.00
39019;DHT22;24786;51.984;5.872;2022-09-23T13:46:49;18.00;97.00
39019;DHT22;24786;51.984;5.872;2022-09-23T13:49:35;17.90;96.90
39019;DHT22;24786;51.984;5.872;2022-09-23T13:52:01;17.90;97.10
39019;DHT22;24786;51.984;5.872;2022-09-23T13:54:48;17.90;96.80
39019;DHT22;24786;51.984;5.872;2022-09-23T13:59:49;18.00;96.70
39019;DHT22;24786;51.984;5.872;2022-09-23T14:02:15;17.90;96.70
39019;DHT22;24786;51.984;5.872;2022-09-23T14:04:41;17.90;96.60
39019;DHT22;24786;51.984;5.872;2022-09-23T14:07:09;17.90;96.50
39019;DHT22;24786;51.984;5.872;2022-09-23T14:09:39;18.00;96.40
39019;DHT22;24786;51.984;5.872;2022-09-23T14:12:06;17.90;96.40
39019;DHT22;24786;51.984;5.872;2022-09-23T14:14:35;18.00;96.40
39019;DHT22;24786;51.984;5.872;2022-09-23T14:17:03;18.00;96.30
39019;DHT22;24786;51.984;5.872;2022-09-23T14:19:30;18.00;96.00
39019;DHT22;24786;51.984;5.872;2022-09-23T14:21:56;18.00;96.10
39019;DHT22;24786;51.984;5.872;2022-09-23T14:32:02;17.90;96.10
39019;DHT22;24786;51.984;5.872;2022-09-23T14:34:51;17.90;96.10
39019;DHT22;24786;51.984;5.872;2022-09-23T14:40:21;17.90;96.20
39019;DHT22;24786;51.984;5.872;2022-09-23T14:42:51;17.90;96.20
39019;DHT22;24786;51.984;5.872;2022-09-23T14:45:24;17.90;96.20
39019;DHT22;24786;51.984;5.872;2022-09-23T14:47:52;17.90;96.20
39019;DHT22;24786;51.984;5.872;2022-09-23T14:50:24;17.80;96.10
39019;DHT22;24786;51.984;5.872;2022-09-23T14:58:58;17.70;96.10
39019;DHT22;24786;51.984;5.872;2022-09-23T15:01:25;17.70;96.10
39019;DHT22;24786;51.984;5.872;2022-09-23T15:03:52;17.70;96.10
39019;DHT22;24786;51.984;5.872;2022-09-23T15:06:19;17.70;96.10
39019;DHT22;24786;51.984;5.872;2022-09-23T15:08:46;17.70;96.20
39019;DHT22;24786;51.984;5.872;2022-09-23T15:11:12;17.80;96.30
39019;DHT22;24786;51.984;5.872;2022-09-23T15:13:40;17.60;96.30
39019;DHT22;24786;51.984;5.872;2022-09-23T15:16:08;17.60;96.30
39019;DHT22;24786;51.984;5.872;2022-09-23T15:18:53;17.60;96.30
39019;DHT22;24786;51.984;5.872;2022-09-23T15:21:20;17.60;96.20
39019;DHT22;24786;51.984;5.872;2022-09-23T15:26:21;17.60;96.20
39019;DHT22;24786;51.984;5.872;2022-09-23T15:28:48;17.60;96.20
39019;DHT22;24786;51.984;5.872;2022-09-23T15:31:19;17.50;96.20
39019;DHT22;24786;51.984;5.872;2022-09-23T15:33:46;17.50;96.20
39019;DHT22;24786;51.984;5.872;2022-09-23T15:36:19;17.50;96.20
39019;DHT22;24786;51.984;5.872;2022-09-23T15:38:46;17.50;96.20
39019;DHT22;24786;51.984;5.872;2022-09-23T15:41:12;17.50;96.30
39019;DHT22;24786;51.984;5.872;2022-09-23T15:43:44;17.40;96.30
39019;DHT22;24786;51.984;5.872;2022-09-23T15:46:20;17.40;96.30
39019;DHT22;24786;51.984;5.872;2022-09-23T15:49:08;17.40;96.30
39019;DHT22;24786;51.984;5.872;2022-09-23T15:51:37;17.40;96.30
39019;DHT22;24786;51.984;5.872;2022-09-23T15:54:08;17.30;96.40
39019;DHT22;24786;51.984;5.872;2022-09-23T15:56:33;17.30;96.50
39019;DHT22;24786;51.984;5.872;2022-09-23T15:58:59;17.30;96.60
39019;DHT22;24786;51.984;5.872;2022-09-23T16:01:30;17.20;96.70
39019;DHT22;24786;51.984;5.872;2022-09-23T16:03:56;17.30;96.80
39019;DHT22;24786;51.984;5.872;2022-09-23T16:06:24;17.20;96.80
39019;DHT22;24786;51.984;5.872;2022-09-23T16:08:50;17.20;96.90
39019;DHT22;24786;51.984;5.872;2022-09-23T16:11:21;17.20;96.90
39019;DHT22;24786;51.984;5.872;2022-09-23T16:13:48;17.20;97.00
39019;DHT22;24786;51.984;5.872;2022-09-23T16:16:15;17.10;97.00
39019;DHT22;24786;51.984;5.872;2022-09-23T16:18:41;17.10;97.00
39019;DHT22;24786;51.984;5.872;2022-09-23T16:21:12;17.00;96.90
39019;DHT22;24786;51.984;5.872;2022-09-23T16:23:41;17.10;97.00
39019;DHT22;24786;51.984;5.872;2022-09-23T16:26:17;17.10;97.30
39019;DHT22;24786;51.984;5.872;2022-09-23T16:28:45;17.00;97.10
39019;DHT22;24786;51.984;5.872;2022-09-23T16:31:12;17.00;97.20
39019;DHT22;24786;51.984;5.872;2022-09-23T16:33:41;16.90;97.40
39019;DHT22;24786;51.984;5.872;2022-09-23T16:36:13;16.90;97.30
39019;DHT22;24786;51.984;5.872;2022-09-23T16:38:40;16.90;97.40
39019;DHT22;24786;51.984;5.872;2022-09-23T16:41:07;16.90;97.50
39019;DHT22;24786;51.984;5.872;2022-09-23T16:43:33;16.80;97.60
39019;DHT22;24786;51.984;5.872;2022-09-23T16:46:07;16.80;97.70
39019;DHT22;24786;51.984;5.872;2022-09-23T16:48:34;16.70;97.80
39019;DHT22;24786;51.984;5.872;2022-09-23T16:51:26;16.60;98.00
39019;DHT22;24786;51.984;5.872;2022-09-23T16:53:51;16.60;98.20
39019;DHT22;24786;51.984;5.872;2022-09-23T16:56:19;16.50;98.30
39019;DHT22;24786;51.984;5.872;2022-09-23T16:58:47;16.50;98.60
39019;DHT22;24786;51.984;5.872;2022-09-23T17:01:17;16.40;98.80
39019;DHT22;24786;51.984;5.872;2022-09-23T17:04:02;16.40;98.90
39019;DHT22;24786;51.984;5.872;2022-09-23T17:06:28;16.30;99.10
39019;DHT22;24786;51.984;5.872;2022-09-23T17:08:54;16.20;99.30
39019;DHT22;24786;51.984;5.872;2022-09-23T17:11:20;16.10;99.40
39019;DHT22;24786;51.984;5.872;2022-09-23T17:13:46;16.10;99.60
39019;DHT22;24786;51.984;5.872;2022-09-23T17:16:28;16.00;99.80
39019;DHT22;24786;51.984;5.872;2022-09-23T17:18:54;16.00;99.90
39019;DHT22;24786;51.984;5.872;2022-09-23T17:21:22;15.90;99.90
39019;DHT22;24786;51.984;5.872;2022-09-23T17:23:51;15.90;99.90
39019;DHT22;24786;51.984;5.872;2022-09-23T17:26:17;15.80;99.90
39019;DHT22;24786;51.984;5.872;2022-09-23T17:28:42;15.80;99.90
39019;DHT22;24786;51.984;5.872;2022-09-23T17:31:08;15.80;99.90
39019;DHT22;24786;51.984;5.872;2022-09-23T17:33:34;15.70;99.90
39019;DHT22;24786;51.984;5.872;2022-09-23T17:36:06;15.50;99.90
39019;DHT22;24786;51.984;5.872;2022-09-23T17:38:32;15.50;99.90
39019;DHT22;24786;51.984;5.872;2022-09-23T17:40:58;15.50;99.90
39019;DHT22;24786;51.984;5.872;2022-09-23T17:43:25;15.50;99.90
39019;DHT22;24786;51.984;5.872;2022-09-23T17:45:52;15.50;99.90
39019;DHT22;24786;51.984;5.872;2022-09-23T17:48:19;15.40;99.90
39019;DHT22;24786;51.984;5.872;2022-09-23T17:50:59;15.40;99.90
39019;DHT22;24786;51.984;5.872;2022-09-23T17:53:29;15.40;99.90
39019;DHT22;24786;51.984;5.872;2022-09-23T17:56:04;15.40;99.90
39019;DHT22;24786;51.984;5.872;2022-09-23T17:58:34;15.30;99.90
39019;DHT22;24786;51.984;5.872;2022-09-23T18:01:01;15.30;99.90
39019;DHT22;24786;51.984;5.872;2022-09-23T18:03:45;15.30;99.90
39019;DHT22;24786;51.984;5.872;2022-09-23T18:06:16;15.20;99.90
39019;DHT22;24786;51.984;5.872;2022-09-23T18:08:43;15.10;99.90
39019;DHT22;24786;51.984;5.872;2022-09-23T18:11:17;15.20;99.90
39019;DHT22;24786;51.984;5.872;2022-09-23T18:16:14;15.00;99.90
39019;DHT22;24786;51.984;5.872;2022-09-23T18:18:39;15.10;99.90
39019;DHT22;24786;51.984;5.872;2022-09-23T18:21:05;15.00;99.90
39019;DHT22;24786;51.984;5.872;2022-09-23T18:23:32;15.00;99.90
39019;DHT22;24786;51.984;5.872;2022-09-23T18:25:57;15.00;99.90
39019;DHT22;24786;51.984;5.872;2022-09-23T18:28:23;14.90;99.90
39019;DHT22;24786;51.984;5.872;2022-09-23T18:30:56;15.00;99.90
39019;DHT22;24786;51.984;5.872;2022-09-23T18:33:22;14.80;99.90